Rosston, Texas
Current Conditions -  °F | °C
As of 6:35 AM on Thursday 23 Oct 2014 (Local Time) from KLUD Reporting Station
Broken Clouds Broken Clouds  
Wind Chill: 63°   Ceiling: 7000
Heat Index: 63°   Visibility: 10mi
Dew Point: 54°   Wind: 6mph
Humidity: 71%   Direction: 120°ESE
Pressure: 30.13"   Gusts: NA
Location:  33.48°N, 97.44°W
Report Text: KLUD 231135Z AUTO 12005KT 10SM BKN070 BKN080 17/12 A3013 RMK AO2 T01730121
Loading
Personal Weather Stations






























Interactive Weather Map
Tropical Storm Tracking
New forecast layout! Learn more

10-Day Weather Forecast

Advertisements
Track Severe Weather on mobile